createdAt,value
2023-06-23T00:00:14.421Z,68.97
2023-06-23T00:01:18.565Z,68.96
2023-06-23T00:02:20.780Z,68.73
2023-06-23T00:03:23.678Z,69.12
2023-06-23T00:04:25.717Z,69.89
2023-06-23T00:05:28.535Z,69.37
2023-06-23T00:06:30.411Z,69.73
2023-06-23T00:07:32.561Z,69.80
2023-06-23T00:08:36.294Z,69.84
2023-06-23T00:09:38.755Z,69.49
2023-06-23T00:10:40.704Z,69.01
2023-06-23T00:11:46.955Z,69.24
2023-06-23T00:12:49.291Z,69.14
2023-06-23T00:13:52.186Z,68.81
2023-06-23T00:14:54.336Z,69.47
2023-06-23T00:15:58.694Z,69.71
2023-06-23T00:17:01.182Z,69.85
2023-06-23T00:18:03.519Z,69.17
2023-06-23T00:19:05.452Z,69.05
2023-06-23T00:20:13.581Z,69.01
2023-06-23T00:21:15.455Z,69.15
2023-06-23T00:22:17.790Z,69.36
2023-06-23T00:23:19.955Z,68.49
2023-06-23T00:24:22.521Z,68.92
2023-06-23T00:25:24.450Z,69.02
2023-06-23T00:26:26.674Z,69.20
2023-06-23T00:27:28.607Z,69.03
2023-06-23T00:28:30.912Z,68.60
2023-06-23T00:29:32.862Z,68.39
2023-06-23T00:30:35.943Z,68.57
2023-06-23T00:31:37.879Z,69.00
2023-06-23T00:32:42.894Z,69.30
2023-06-23T00:33:45.138Z,69.19
2023-06-23T00:34:47.054Z,68.74
2023-06-23T00:35:50.315Z,68.46
2023-06-23T00:36:52.163Z,68.73
2023-06-23T00:37:54.758Z,68.78
2023-06-23T00:38:57.283Z,69.03
2023-06-23T00:40:00.189Z,68.79
2023-06-23T00:41:04.789Z,68.57
2023-06-23T00:42:09.406Z,69.17
2023-06-23T00:43:11.353Z,69.74
2023-06-23T00:44:13.511Z,69.72
2023-06-23T00:45:16.408Z,69.47
2023-06-23T00:46:21.819Z,69.89
2023-06-23T00:47:25.455Z,69.96
2023-06-23T00:48:27.469Z,69.19
2023-06-23T00:49:30.365Z,69.09
2023-06-23T00:50:32.672Z,68.38
2023-06-23T00:51:34.938Z,69.00
2023-06-23T00:52:38.548Z,69.22
2023-06-23T00:53:40.430Z,69.36
2023-06-23T00:54:42.838Z,69.94
2023-06-23T00:55:45.938Z,69.99
2023-06-23T00:56:51.311Z,69.78
2023-06-23T00:57:55.473Z,70.20
2023-06-23T00:58:58.620Z,70.34
2023-06-23T01:00:01.044Z,70.53
2023-06-23T01:01:04.278Z,69.93
2023-06-23T01:02:07.255Z,70.25
2023-06-23T01:03:09.357Z,69.50
2023-06-23T01:04:11.468Z,70.08
2023-06-23T01:05:13.932Z,69.92
2023-06-23T01:06:25.524Z,70.66
2023-06-23T01:07:36.304Z,70.44
2023-06-23T01:09:06.664Z,70.61
2023-06-23T01:10:19.907Z,70.60
2023-06-23T01:11:36.738Z,70.43
2023-06-23T01:12:44.599Z,70.79
2023-06-23T01:14:12.343Z,70.99
2023-06-23T01:15:23.110Z,70.74
2023-06-23T01:16:34.024Z,70.65
2023-06-23T01:17:44.542Z,70.46
2023-06-23T01:19:21.516Z,70.83
2023-06-23T01:20:27.296Z,70.49
2023-06-23T01:22:08.749Z,71.23
2023-06-23T01:23:28.807Z,70.50
2023-06-23T01:24:36.381Z,70.62
2023-06-23T01:25:55.101Z,70.83
2023-06-23T01:27:15.626Z,70.95
2023-06-23T01:28:29.422Z,71.07
2023-06-23T01:29:35.391Z,70.66
2023-06-23T01:30:40.495Z,70.99
2023-06-23T01:31:57.445Z,70.80
2023-06-23T01:33:18.546Z,70.94
2023-06-23T01:34:24.576Z,70.92
2023-06-23T01:35:34.037Z,72.02
2023-06-23T01:36:44.296Z,71.77
2023-06-23T01:37:49.261Z,71.68
2023-06-23T01:38:56.950Z,70.83
2023-06-23T01:40:07.694Z,70.68
2023-06-23T01:41:19.771Z,70.55
2023-06-23T01:42:26.925Z,70.51
2023-06-23T01:43:31.078Z,70.79
2023-06-23T01:44:34.582Z,71.12
2023-06-23T01:45:40.709Z,70.42
2023-06-23T01:46:51.324Z,70.54
2023-06-23T01:47:54.788Z,71.04
2023-06-23T01:49:00.545Z,71.03
2023-06-23T01:50:05.612Z,71.88
2023-06-23T01:51:09.753Z,71.83
2023-06-23T01:52:14.508Z,72.01
2023-06-23T01:53:17.024Z,72.08
2023-06-23T01:54:20.441Z,71.66
2023-06-23T01:55:25.219Z,71.70
2023-06-23T01:56:28.061Z,71.15
2023-06-23T01:57:32.386Z,71.50
2023-06-23T01:58:38.531Z,71.53
2023-06-23T01:59:43.283Z,71.61
2023-06-23T02:00:46.899Z,72.13
2023-06-23T02:01:49.541Z,72.33
2023-06-23T02:02:54.497Z,72.24
2023-06-23T02:03:58.466Z,72.03
2023-06-23T02:05:00.707Z,72.18
2023-06-23T02:06:04.101Z,72.27
2023-06-23T02:07:07.770Z,72.17
2023-06-23T02:08:10.954Z,72.16
2023-06-23T02:09:18.672Z,72.23
2023-06-23T02:10:22.347Z,72.38
2023-06-23T02:11:26.371Z,72.12
2023-06-23T02:12:32.159Z,72.51
2023-06-23T02:13:36.500Z,73.02
2023-06-23T02:14:41.718Z,73.06
2023-06-23T02:15:43.780Z,73.07
2023-06-23T02:16:47.034Z,72.84
2023-06-23T02:17:51.120Z,73.52
2023-06-23T02:18:55.476Z,73.55
2023-06-23T02:19:59.587Z,73.23
2023-06-23T02:21:02.158Z,73.39
2023-06-23T02:22:07.470Z,73.74
2023-06-23T02:23:10.877Z,73.69
2023-06-23T02:24:14.206Z,74.67
2023-06-23T02:25:18.094Z,74.82
2023-06-23T02:26:20.852Z,74.58
2023-06-23T02:27:23.184Z,74.77
2023-06-23T02:28:25.381Z,74.44
2023-06-23T02:29:27.823Z,74.22
2023-06-23T02:30:31.181Z,75.05
2023-06-23T02:31:33.858Z,74.92
2023-06-23T02:32:35.918Z,74.92
2023-06-23T02:33:39.158Z,75.01
2023-06-23T02:34:41.017Z,74.70
2023-06-23T02:35:43.206Z,74.01
2023-06-23T02:36:49.374Z,74.32
2023-06-23T02:37:55.477Z,74.29
2023-06-23T02:39:00.747Z,74.51
2023-06-23T02:40:12.882Z,74.23
2023-06-23T02:41:17.001Z,74.10
2023-06-23T02:42:22.696Z,74.10
2023-06-23T02:43:36.766Z,74.93
2023-06-23T02:44:45.760Z,74.98
2023-06-23T02:45:50.578Z,74.70
2023-06-23T02:46:57.846Z,74.33
2023-06-23T02:48:01.639Z,74.58
2023-06-23T02:49:07.747Z,73.78
2023-06-23T02:50:15.468Z,73.78
2023-06-23T02:51:21.707Z,74.08
2023-06-23T02:52:28.107Z,74.24
2023-06-23T02:53:35.326Z,74.06
2023-06-23T02:54:44.024Z,74.11
2023-06-23T02:55:48.549Z,74.12
2023-06-23T02:56:52.728Z,74.08
2023-06-23T02:57:58.698Z,74.12
2023-06-23T02:59:06.288Z,74.10
2023-06-23T03:00:18.244Z,74.39
2023-06-23T03:01:23.534Z,74.27
2023-06-23T03:02:26.476Z,73.94
2023-06-23T03:03:31.164Z,74.67
2023-06-23T03:04:35.804Z,74.30
2023-06-23T03:05:37.649Z,74.53
2023-06-23T03:06:41.079Z,73.99
2023-06-23T03:07:43.002Z,73.54
2023-06-23T03:08:46.670Z,73.30
2023-06-23T03:09:48.567Z,73.00
2023-06-23T03:10:50.464Z,73.38
2023-06-23T03:11:52.336Z,73.35
2023-06-23T03:12:54.638Z,72.96
2023-06-23T03:13:57.663Z,72.94
2023-06-23T03:15:00.443Z,72.88
2023-06-23T03:16:07.248Z,72.92
2023-06-23T03:17:18.814Z,72.45
2023-06-23T03:18:26.042Z,72.08
2023-06-23T03:19:34.797Z,72.04
2023-06-23T03:20:51.620Z,72.40
2023-06-23T03:22:03.858Z,72.17
2023-06-23T03:23:10.517Z,72.12
2023-06-23T03:24:15.338Z,72.05
2023-06-23T03:25:23.899Z,72.04
2023-06-23T03:26:29.600Z,72.80
2023-06-23T03:27:34.642Z,72.28
2023-06-23T03:28:40.878Z,72.53
2023-06-23T03:29:57.233Z,72.20
2023-06-23T03:31:08.284Z,72.36
2023-06-23T03:32:13.840Z,71.98
2023-06-23T03:33:24.857Z,72.53
2023-06-23T03:34:35.425Z,72.15
2023-06-23T03:35:43.775Z,72.36
2023-06-23T03:36:47.587Z,72.57
2023-06-23T03:38:01.129Z,72.66
2023-06-23T03:39:25.121Z,72.52
2023-06-23T03:40:29.386Z,72.48
2023-06-23T03:41:32.639Z,72.30
2023-06-23T03:42:40.581Z,71.96
2023-06-23T03:43:48.493Z,71.53
2023-06-23T03:44:53.996Z,71.95
2023-06-23T03:46:01.212Z,72.10
2023-06-23T03:47:10.939Z,71.99
2023-06-23T03:48:15.204Z,71.30
2023-06-23T03:49:20.929Z,71.69
2023-06-23T03:50:27.082Z,71.87
2023-06-23T03:51:30.393Z,71.93
2023-06-23T03:52:34.403Z,72.40
2023-06-23T03:53:37.756Z,72.54
2023-06-23T03:54:41.501Z,72.73
2023-06-23T03:55:45.048Z,73.33
2023-06-23T03:56:50.253Z,72.89
2023-06-23T03:57:53.490Z,72.69
2023-06-23T03:58:56.388Z,72.74
2023-06-23T03:59:59.217Z,73.04
2023-06-23T04:01:04.029Z,73.07
2023-06-23T04:02:07.980Z,73.31
2023-06-23T04:03:12.675Z,73.57
2023-06-23T04:04:18.311Z,73.82
2023-06-23T04:05:22.261Z,74.17
2023-06-23T04:06:26.951Z,73.81
2023-06-23T04:07:30.977Z,73.56
2023-06-23T04:08:34.362Z,73.24
2023-06-23T04:09:38.029Z,73.44
2023-06-23T04:10:40.461Z,72.25
2023-06-23T04:11:44.494Z,72.93
2023-06-23T04:12:49.458Z,72.81
2023-06-23T04:13:53.101Z,73.48
2023-06-23T04:14:56.444Z,71.45
2023-06-23T04:16:01.998Z,72.02
2023-06-23T04:17:05.509Z,71.56
2023-06-23T04:18:09.712Z,72.11
2023-06-23T04:19:13.580Z,72.33
2023-06-23T04:20:17.102Z,72.29
2023-06-23T04:21:20.179Z,72.01
2023-06-23T04:22:23.845Z,72.25
2023-06-23T04:23:27.673Z,71.11
2023-06-23T04:24:31.544Z,71.49
2023-06-23T04:25:33.761Z,71.94
2023-06-23T04:26:37.880Z,71.56
2023-06-23T04:27:40.490Z,70.96
2023-06-23T04:28:44.998Z,71.03
2023-06-23T04:29:48.956Z,70.87
2023-06-23T04:30:52.554Z,71.21
2023-06-23T04:31:55.898Z,71.38
2023-06-23T04:32:57.963Z,72.02
2023-06-23T04:34:00.232Z,71.58
2023-06-23T04:35:02.341Z,71.38
2023-06-23T04:36:14.331Z,70.86
2023-06-23T04:37:39.556Z,70.55
2023-06-23T04:38:51.398Z,70.69
2023-06-23T04:40:09.546Z,71.04
2023-06-23T04:41:17.148Z,69.56
2023-06-23T04:42:25.895Z,69.65
2023-06-23T04:43:34.854Z,70.42
2023-06-23T04:44:50.104Z,69.81
2023-06-23T04:45:58.342Z,68.55
2023-06-23T04:47:04.590Z,69.87
2023-06-23T04:48:10.404Z,69.19
2023-06-23T04:49:17.289Z,69.80
2023-06-23T04:50:21.698Z,70.34
2023-06-23T04:51:29.731Z,70.08
2023-06-23T04:52:35.437Z,69.79
2023-06-23T04:53:54.465Z,70.36
2023-06-23T04:55:00.562Z,70.16
2023-06-23T04:56:06.708Z,69.57
2023-06-23T04:57:12.007Z,69.30
2023-06-23T04:58:14.961Z,69.28
2023-06-23T04:59:21.700Z,69.81
2023-06-23T05:00:25.432Z,70.00
2023-06-23T05:01:29.082Z,70.15
2023-06-23T05:02:33.860Z,70.40
2023-06-23T05:03:37.571Z,70.34
2023-06-23T05:04:41.977Z,70.20
2023-06-23T05:05:46.448Z,70.24
2023-06-23T05:06:49.956Z,69.54
2023-06-23T05:07:54.798Z,69.53
2023-06-23T05:08:59.300Z,69.45
2023-06-23T05:10:02.813Z,69.65
2023-06-23T05:11:07.575Z,69.66
2023-06-23T05:12:12.108Z,69.71
2023-06-23T05:13:18.348Z,69.75
2023-06-23T05:14:21.589Z,69.25
2023-06-23T05:15:25.092Z,68.07
2023-06-23T05:16:28.306Z,68.63
2023-06-23T05:17:33.343Z,69.40
2023-06-23T05:18:36.309Z,69.62
2023-06-23T05:19:42.298Z,69.13
2023-06-23T05:20:45.559Z,69.39
2023-06-23T05:21:49.828Z,68.23
2023-06-23T05:22:52.929Z,67.50
2023-06-23T05:23:57.391Z,67.86
2023-06-23T05:25:05.271Z,68.36
2023-06-23T05:26:10.168Z,68.60
2023-06-23T05:27:14.777Z,68.58
2023-06-23T05:28:18.322Z,68.65
2023-06-23T05:29:23.471Z,67.67
2023-06-23T05:30:25.857Z,65.60
2023-06-23T05:31:29.980Z,66.37
2023-06-23T05:32:35.635Z,66.80
2023-06-23T05:33:42.003Z,67.29
2023-06-23T05:34:50.767Z,66.30
2023-06-23T05:35:54.023Z,67.28
2023-06-23T05:36:57.035Z,67.68
2023-06-23T05:38:03.003Z,66.91
2023-06-23T05:39:07.115Z,66.51
2023-06-23T05:40:12.992Z,66.08
2023-06-23T05:41:15.997Z,65.96
2023-06-23T05:42:19.202Z,65.25
2023-06-23T05:43:21.137Z,65.05
2023-06-23T05:44:23.049Z,65.35
2023-06-23T05:45:25.432Z,64.19
2023-06-23T05:46:29.842Z,64.14
2023-06-23T05:47:37.315Z,64.20
2023-06-23T05:48:46.102Z,64.31
2023-06-23T05:49:51.382Z,63.36
2023-06-23T05:50:53.644Z,63.75
2023-06-23T05:52:02.214Z,63.90
2023-06-23T05:53:21.409Z,63.78
2023-06-23T05:54:27.018Z,64.31
2023-06-23T05:55:30.819Z,64.74
2023-06-23T05:56:40.342Z,64.30
2023-06-23T05:57:45.550Z,64.68
2023-06-23T05:58:52.041Z,63.57
2023-06-23T06:00:17.680Z,64.24
2023-06-23T06:01:23.090Z,64.38
2023-06-23T06:02:29.819Z,63.98
2023-06-23T06:03:38.492Z,63.32
2023-06-23T06:04:44.008Z,63.65
2023-06-23T06:05:48.744Z,64.19
2023-06-23T06:06:53.592Z,63.33
2023-06-23T06:07:57.910Z,62.58
2023-06-23T06:09:00.066Z,63.08
2023-06-23T06:10:03.900Z,62.31
2023-06-23T06:11:07.422Z,62.19
2023-06-23T06:12:12.145Z,61.12
2023-06-23T06:13:15.656Z,61.55
2023-06-23T06:14:19.470Z,61.20
2023-06-23T06:15:21.589Z,61.94
2023-06-23T06:16:25.449Z,61.35
2023-06-23T06:17:29.592Z,60.67
2023-06-23T06:18:33.370Z,60.84
2023-06-23T06:19:38.281Z,59.97
2023-06-23T06:20:42.292Z,60.73
2023-06-23T06:21:47.158Z,59.89
2023-06-23T06:22:53.532Z,60.47
2023-06-23T06:23:59.604Z,61.33
2023-06-23T06:25:04.167Z,60.92
2023-06-23T06:26:08.858Z,61.42
2023-06-23T06:27:11.044Z,60.10
2023-06-23T06:28:15.908Z,59.62
2023-06-23T06:29:19.879Z,59.42
2023-06-23T06:30:23.766Z,60.06
2023-06-23T06:31:28.342Z,59.16
2023-06-23T06:32:35.682Z,59.16
2023-06-23T06:33:40.737Z,60.52
2023-06-23T06:34:44.849Z,59.51
2023-06-23T06:35:49.996Z,59.28
2023-06-23T06:36:55.164Z,59.76
2023-06-23T06:37:57.770Z,59.43
2023-06-23T06:39:02.096Z,59.78
2023-06-23T06:40:07.739Z,59.99
2023-06-23T06:41:10.204Z,59.97
2023-06-23T06:42:13.041Z,59.57
2023-06-23T06:43:16.818Z,59.21
2023-06-23T06:44:19.354Z,58.68
2023-06-23T06:45:21.298Z,58.50
2023-06-23T06:46:23.353Z,58.30
2023-06-23T06:47:26.417Z,58.42
2023-06-23T06:48:29.965Z,58.98
2023-06-23T06:49:32.585Z,57.77
2023-06-23T06:50:34.769Z,57.68
2023-06-23T06:51:38.414Z,58.29
2023-06-23T06:52:45.777Z,58.08
2023-06-23T06:53:48.202Z,58.45
2023-06-23T06:54:52.729Z,58.49
2023-06-23T06:55:55.637Z,57.45
2023-06-23T06:56:58.660Z,57.39
2023-06-23T06:58:00.780Z,57.44
2023-06-23T06:59:04.029Z,57.71
2023-06-23T07:00:07.771Z,58.37
2023-06-23T07:01:11.001Z,58.29
2023-06-23T07:02:14.639Z,58.24
2023-06-23T07:03:17.544Z,58.08
2023-06-23T07:04:21.137Z,57.38
2023-06-23T07:05:23.434Z,56.93
2023-06-23T07:06:27.145Z,57.31
2023-06-23T07:07:31.597Z,58.55
2023-06-23T07:08:33.459Z,57.61
2023-06-23T07:09:35.324Z,56.43
2023-06-23T07:10:37.843Z,57.05
2023-06-23T07:11:39.731Z,56.79
2023-06-23T07:12:41.599Z,57.84
2023-06-23T07:13:43.444Z,56.59
2023-06-23T07:14:45.337Z,57.00
2023-06-23T07:15:47.619Z,56.78
2023-06-23T07:16:49.620Z,55.22
2023-06-23T07:17:51.560Z,55.90
2023-06-23T07:18:53.845Z,55.94
2023-06-23T07:19:55.730Z,55.84
2023-06-23T07:20:58.316Z,56.16
2023-06-23T07:22:00.510Z,57.14
2023-06-23T07:23:02.354Z,56.35
2023-06-23T07:24:04.284Z,55.17
2023-06-23T07:25:06.644Z,54.91
2023-06-23T07:26:08.782Z,54.89
2023-06-23T07:27:10.740Z,54.30
2023-06-23T07:28:12.694Z,53.75
2023-06-23T07:29:14.657Z,53.14
2023-06-23T07:30:17.441Z,52.98
2023-06-23T07:31:19.773Z,52.99
2023-06-23T07:32:21.680Z,54.00
2023-06-23T07:33:23.562Z,55.06
2023-06-23T07:34:26.301Z,54.23
2023-06-23T07:35:28.298Z,53.93
2023-06-23T07:36:30.433Z,54.46
2023-06-23T07:37:32.322Z,54.16
2023-06-23T07:38:34.306Z,53.80
2023-06-23T07:39:39.413Z,54.10
2023-06-23T07:40:41.255Z,53.53
2023-06-23T07:41:43.409Z,52.78
2023-06-23T07:42:45.261Z,52.58
2023-06-23T07:43:47.121Z,52.44
2023-06-23T07:44:48.976Z,52.16
2023-06-23T07:45:50.944Z,52.47
2023-06-23T07:46:53.259Z,51.88
2023-06-23T07:47:55.419Z,51.76
2023-06-23T07:48:57.344Z,51.78
2023-06-23T07:49:59.186Z,51.26
2023-06-23T07:51:01.110Z,52.02
2023-06-23T07:52:05.781Z,50.92
2023-06-23T07:53:07.654Z,50.95
2023-06-23T07:54:09.530Z,51.04
2023-06-23T07:55:11.564Z,52.16
2023-06-23T07:56:13.600Z,52.67
2023-06-23T07:57:15.781Z,52.05
2023-06-23T07:58:17.657Z,51.44
2023-06-23T07:59:19.525Z,51.29
2023-06-23T08:00:22.188Z,51.58
2023-06-23T08:01:24.634Z,50.91
2023-06-23T08:02:26.552Z,51.54
2023-06-23T08:03:28.665Z,51.18
2023-06-23T08:04:30.927Z,53.01
2023-06-23T08:05:33.209Z,50.74
2023-06-23T08:06:35.617Z,50.91
2023-06-23T08:07:37.588Z,50.45
2023-06-23T08:08:39.692Z,50.39
2023-06-23T08:09:41.566Z,50.16
2023-06-23T08:10:45.096Z,50.87
2023-06-23T08:11:47.228Z,50.67
2023-06-23T08:12:49.056Z,49.93
2023-06-23T08:13:51.814Z,50.87
2023-06-23T08:14:53.620Z,51.06
2023-06-23T08:15:55.479Z,51.39
2023-06-23T08:16:57.768Z,51.09
2023-06-23T08:17:59.743Z,50.86
2023-06-23T08:19:01.667Z,50.43
2023-06-23T08:20:04.369Z,50.45
2023-06-23T08:21:06.464Z,50.93
2023-06-23T08:22:08.900Z,50.67
2023-06-23T08:23:10.735Z,50.25
2023-06-23T08:24:12.641Z,51.23
2023-06-23T08:25:15.853Z,50.91
2023-06-23T08:26:17.946Z,51.59
2023-06-23T08:27:20.561Z,50.89
2023-06-23T08:28:22.472Z,49.38
2023-06-23T08:29:24.360Z,49.89
2023-06-23T08:30:29.881Z,48.30
2023-06-23T08:31:31.821Z,48.71
2023-06-23T08:32:34.401Z,48.97
2023-06-23T08:33:36.596Z,48.95
2023-06-23T08:34:39.152Z,49.74
2023-06-23T08:35:41.074Z,49.28
2023-06-23T08:36:42.955Z,50.07
2023-06-23T08:37:45.121Z,49.94
2023-06-23T08:38:46.982Z,48.61
2023-06-23T08:39:48.843Z,49.23
2023-06-23T08:40:51.401Z,50.22
2023-06-23T08:41:55.568Z,50.88
2023-06-23T08:42:58.616Z,50.58
2023-06-23T08:44:02.793Z,50.06
2023-06-23T08:45:07.946Z,49.64
2023-06-23T08:46:13.424Z,49.21
2023-06-23T08:47:20.078Z,48.70
2023-06-23T08:48:26.313Z,48.82
2023-06-23T08:49:31.704Z,48.71
2023-06-23T08:50:35.250Z,48.42
2023-06-23T08:51:37.871Z,48.22
2023-06-23T08:52:42.322Z,49.61
2023-06-23T08:53:46.880Z,49.31
2023-06-23T08:54:49.333Z,49.35
2023-06-23T08:55:52.334Z,48.27
2023-06-23T08:56:54.214Z,47.79
2023-06-23T08:58:01.295Z,48.07
2023-06-23T08:59:03.533Z,47.32
2023-06-23T09:00:06.533Z,47.83
2023-06-23T09:01:08.503Z,47.53
2023-06-23T09:02:10.550Z,47.54
2023-06-23T09:03:13.158Z,47.64
2023-06-23T09:04:16.049Z,48.20
2023-06-23T09:05:17.943Z,47.18
2023-06-23T09:06:19.927Z,48.19
2023-06-23T09:07:22.032Z,49.27
2023-06-23T09:08:23.951Z,49.54
2023-06-23T09:09:26.728Z,48.88
2023-06-23T09:10:28.673Z,48.13
2023-06-23T09:11:30.884Z,47.97
2023-06-23T09:12:33.452Z,47.52
2023-06-23T09:13:36.646Z,47.17
2023-06-23T09:14:39.107Z,46.68
2023-06-23T09:15:55.851Z,46.52
2023-06-23T09:17:02.684Z,45.86
2023-06-23T09:18:05.580Z,45.77
2023-06-23T09:19:08.485Z,45.99
2023-06-23T09:20:12.777Z,46.39
2023-06-23T09:21:14.692Z,47.34
2023-06-23T09:22:20.976Z,46.77
2023-06-23T09:23:24.129Z,46.91
2023-06-23T09:24:42.292Z,47.60
2023-06-23T09:25:48.407Z,47.54
2023-06-23T09:26:52.780Z,47.17
2023-06-23T09:27:54.669Z,46.60
2023-06-23T09:29:19.170Z,47.44
2023-06-23T09:30:21.014Z,47.34
2023-06-23T09:31:24.394Z,47.26
2023-06-23T09:32:30.555Z,46.73
2023-06-23T09:33:33.079Z,45.80
2023-06-23T09:34:35.685Z,46.28
2023-06-23T09:35:37.946Z,45.99
2023-06-23T09:36:40.924Z,46.00
2023-06-23T09:37:43.001Z,45.82
2023-06-23T09:38:45.396Z,45.68
2023-06-23T09:39:50.566Z,46.68
2023-06-23T09:41:18.191Z,47.58
2023-06-23T09:42:20.914Z,46.70
2023-06-23T09:43:22.806Z,46.20
2023-06-23T09:44:33.819Z,46.31
2023-06-23T09:45:35.730Z,46.22
2023-06-23T09:46:37.619Z,46.40
2023-06-23T09:47:39.824Z,45.63
2023-06-23T09:48:42.213Z,45.37
2023-06-23T09:49:49.455Z,44.61
2023-06-23T09:51:04.393Z,45.30
2023-06-23T09:52:07.591Z,44.82
2023-06-23T09:53:10.180Z,44.88
2023-06-23T09:54:12.117Z,45.52
2023-06-23T09:55:14.085Z,45.20
2023-06-23T09:56:21.055Z,45.76
2023-06-23T09:57:22.940Z,45.55
2023-06-23T09:58:25.108Z,44.60
2023-06-23T09:59:26.985Z,45.26
2023-06-23T10:00:32.865Z,46.98
2023-06-23T10:01:38.517Z,48.52
2023-06-23T10:02:40.616Z,47.39
2023-06-23T10:03:51.420Z,46.70
2023-06-23T10:05:01.814Z,46.47
2023-06-23T10:06:03.693Z,46.43
2023-06-23T10:07:23.786Z,46.52
2023-06-23T10:08:28.970Z,47.46
2023-06-23T10:09:30.852Z,47.22
2023-06-23T10:10:33.412Z,46.36
2023-06-23T10:11:37.711Z,46.99
2023-06-23T10:12:41.713Z,46.59
2023-06-23T10:13:45.220Z,46.34
2023-06-23T10:14:48.234Z,45.25
2023-06-23T10:15:50.243Z,44.93
2023-06-23T10:16:58.673Z,45.70
2023-06-23T10:18:01.265Z,45.50
2023-06-23T10:19:05.096Z,44.46
2023-06-23T10:20:07.824Z,43.91
2023-06-23T10:21:09.869Z,44.87
2023-06-23T10:22:15.202Z,44.73
2023-06-23T10:23:18.638Z,44.85
2023-06-23T10:24:20.578Z,43.72
2023-06-23T10:25:25.945Z,43.79
2023-06-23T10:26:31.080Z,43.43
2023-06-23T10:27:35.306Z,43.09
2023-06-23T10:28:41.078Z,42.81
2023-06-23T10:29:48.666Z,42.58
2023-06-23T10:30:50.889Z,44.97
2023-06-23T10:31:58.135Z,44.53
2023-06-23T10:33:03.323Z,43.98
2023-06-23T10:34:06.779Z,43.94
2023-06-23T10:35:11.768Z,42.89
2023-06-23T10:36:18.863Z,43.45
2023-06-23T10:37:31.669Z,43.95
2023-06-23T10:38:44.661Z,43.52
2023-06-23T10:39:51.703Z,43.58
2023-06-23T10:40:59.957Z,45.32
2023-06-23T10:42:02.248Z,44.68
2023-06-23T10:43:06.187Z,45.01
2023-06-23T10:44:09.703Z,45.65
2023-06-23T10:45:11.947Z,45.08
2023-06-23T10:46:14.996Z,44.98
2023-06-23T10:47:17.844Z,44.31
2023-06-23T10:48:19.986Z,43.23
2023-06-23T10:49:25.119Z,45.03
2023-06-23T10:50:31.161Z,43.94
2023-06-23T10:51:33.835Z,43.13
2023-06-23T10:52:35.775Z,43.13
2023-06-23T10:53:56.955Z,43.94
2023-06-23T10:54:59.421Z,44.23
2023-06-23T10:56:08.318Z,44.32
2023-06-23T10:57:12.849Z,45.39
2023-06-23T10:58:19.397Z,45.02
2023-06-23T10:59:24.126Z,44.62
2023-06-23T11:00:32.330Z,44.33
2023-06-23T11:02:00.327Z,44.51
2023-06-23T11:03:02.419Z,44.55
2023-06-23T11:04:27.563Z,44.47
2023-06-23T11:05:29.571Z,44.41
2023-06-23T11:06:36.934Z,43.48
2023-06-23T11:08:02.519Z,43.43
2023-06-23T11:09:24.307Z,43.61
2023-06-23T11:10:47.368Z,44.31
2023-06-23T11:11:49.352Z,43.61
2023-06-23T11:12:51.535Z,44.55
2023-06-23T11:13:53.514Z,44.23
2023-06-23T11:15:00.289Z,44.12
2023-06-23T11:16:03.285Z,42.71
2023-06-23T11:17:05.380Z,43.26
2023-06-23T11:18:07.901Z,42.86
2023-06-23T11:19:09.883Z,42.32
2023-06-23T11:20:30.145Z,43.28
2023-06-23T11:21:32.099Z,43.23
2023-06-23T11:22:34.020Z,44.66
2023-06-23T11:23:36.261Z,43.84
2023-06-23T11:24:52.956Z,44.57
2023-06-23T11:25:54.900Z,45.72
2023-06-23T11:27:03.843Z,46.14
2023-06-23T11:28:27.196Z,43.96
2023-06-23T11:29:29.851Z,43.61
2023-06-23T11:30:31.754Z,43.07
2023-06-23T11:31:33.782Z,41.68
2023-06-23T11:32:35.781Z,42.24
2023-06-23T11:33:41.195Z,42.51
2023-06-23T11:34:55.303Z,42.67
2023-06-23T11:36:00.754Z,42.31
2023-06-23T11:37:02.976Z,42.17
2023-06-23T11:38:06.039Z,41.97
2023-06-23T11:39:09.301Z,43.49
2023-06-23T11:40:12.348Z,43.45
2023-06-23T11:41:16.398Z,43.55
2023-06-23T11:42:18.355Z,42.38
2023-06-23T11:43:25.972Z,42.92
2023-06-23T11:44:28.769Z,43.39
2023-06-23T11:45:32.731Z,43.54
2023-06-23T11:46:35.531Z,43.71
2023-06-23T11:47:38.533Z,44.22
2023-06-23T11:48:42.188Z,44.18
2023-06-23T11:49:44.383Z,43.38
2023-06-23T11:50:46.865Z,43.69
2023-06-23T11:51:49.000Z,43.50
2023-06-23T11:52:52.989Z,43.48
2023-06-23T11:53:55.138Z,43.79
2023-06-23T11:54:57.817Z,44.33
2023-06-23T11:56:01.473Z,43.77
2023-06-23T11:57:04.446Z,43.84
2023-06-23T11:58:06.372Z,42.55
2023-06-23T11:59:11.566Z,42.64
2023-06-23T12:00:14.391Z,42.73
2023-06-23T12:01:19.141Z,42.35
2023-06-23T12:02:21.702Z,42.81
2023-06-23T12:03:23.873Z,42.50
2023-06-23T12:04:25.897Z,42.91
2023-06-23T12:05:31.313Z,43.17
2023-06-23T12:06:37.463Z,42.77
2023-06-23T12:07:39.860Z,43.67
2023-06-23T12:08:41.784Z,42.87
2023-06-23T12:09:43.745Z,42.16
2023-06-23T12:10:48.061Z,42.03
2023-06-23T12:11:50.218Z,42.75
2023-06-23T12:12:53.766Z,42.57
2023-06-23T12:13:55.613Z,44.22
2023-06-23T12:15:01.158Z,44.82
2023-06-23T12:16:03.032Z,44.65
2023-06-23T12:17:06.600Z,42.33
2023-06-23T12:18:09.699Z,41.71
2023-06-23T12:19:11.701Z,42.90
2023-06-23T12:20:17.556Z,41.36
2023-06-23T12:21:22.338Z,41.74
2023-06-23T12:22:24.489Z,41.38
2023-06-23T12:23:26.398Z,41.71
2023-06-23T12:24:30.653Z,41.34
2023-06-23T12:25:38.645Z,41.89
2023-06-23T12:26:42.299Z,42.04
2023-06-23T12:27:52.070Z,41.18
2023-06-23T12:29:09.290Z,42.35
2023-06-23T12:30:19.142Z,42.63
2023-06-23T12:31:31.288Z,43.67
2023-06-23T12:32:34.415Z,43.59
2023-06-23T12:33:41.599Z,43.13
2023-06-23T12:34:46.340Z,42.02
2023-06-23T12:36:04.140Z,42.79
2023-06-23T12:37:08.077Z,44.82
2023-06-23T12:38:10.917Z,44.66
2023-06-23T12:39:19.165Z,44.10
2023-06-23T12:40:36.922Z,43.27
2023-06-23T12:41:40.021Z,43.13
2023-06-23T12:42:43.637Z,43.51
2023-06-23T12:43:49.862Z,42.15
2023-06-23T12:44:52.098Z,40.55
2023-06-23T12:45:58.346Z,40.27
2023-06-23T12:47:02.438Z,40.42
2023-06-23T12:48:07.367Z,39.95
2023-06-23T12:49:11.386Z,39.44
2023-06-23T12:50:19.749Z,40.03
2023-06-23T12:51:37.879Z,40.76
2023-06-23T12:52:39.876Z,41.62
2023-06-23T12:53:43.036Z,42.76
2023-06-23T12:54:45.235Z,43.04
2023-06-23T12:55:47.615Z,43.09
2023-06-23T12:56:49.540Z,43.06
2023-06-23T12:57:52.281Z,43.61
2023-06-23T12:58:54.535Z,43.67
2023-06-23T12:59:56.414Z,42.82
2023-06-23T13:00:58.658Z,42.70
2023-06-23T13:02:00.980Z,41.44
2023-06-23T13:03:05.799Z,41.26
2023-06-23T13:04:08.880Z,40.99
2023-06-23T13:05:10.965Z,41.60
2023-06-23T13:06:13.534Z,42.77
2023-06-23T13:07:15.531Z,42.90
2023-06-23T13:08:17.575Z,42.14
2023-06-23T13:09:19.865Z,41.89
2023-06-23T13:10:21.904Z,42.19
2023-06-23T13:11:25.045Z,42.95
2023-06-23T13:12:26.969Z,42.79
2023-06-23T13:13:29.110Z,42.60
2023-06-23T13:14:31.041Z,42.03
2023-06-23T13:15:33.722Z,43.61
2023-06-23T13:16:36.524Z,44.32
2023-06-23T13:17:38.495Z,42.20
2023-06-23T13:18:40.922Z,42.55
2023-06-23T13:19:42.837Z,41.96
2023-06-23T13:20:44.701Z,41.89
2023-06-23T13:21:49.247Z,42.55
2023-06-23T13:22:51.166Z,42.72
2023-06-23T13:23:53.014Z,43.12
2023-06-23T13:24:57.557Z,43.00
2023-06-23T13:25:59.499Z,42.83
2023-06-23T13:27:01.712Z,44.03
2023-06-23T13:28:03.766Z,43.94
2023-06-23T13:29:05.680Z,43.68
2023-06-23T13:30:08.267Z,43.93
2023-06-23T13:31:10.734Z,43.71
2023-06-23T13:32:14.271Z,45.36
2023-06-23T13:33:16.169Z,45.66
2023-06-23T13:34:18.077Z,45.88
2023-06-23T13:35:20.039Z,46.20
2023-06-23T13:36:22.116Z,46.48
2023-06-23T13:37:24.460Z,46.37
2023-06-23T13:38:26.296Z,46.27
2023-06-23T13:39:28.204Z,46.20
2023-06-23T13:40:30.089Z,45.49
2023-06-23T13:41:31.955Z,45.99
2023-06-23T13:42:34.133Z,45.53
2023-06-23T13:43:36.028Z,45.36
2023-06-23T13:44:37.918Z,45.02
2023-06-23T13:45:39.912Z,44.72
2023-06-23T13:46:41.795Z,44.03
2023-06-23T13:47:44.140Z,44.99
2023-06-23T13:48:46.045Z,46.00
2023-06-23T13:49:48.080Z,45.88
2023-06-23T13:50:49.981Z,45.85
2023-06-23T13:51:51.933Z,46.02
2023-06-23T13:52:54.148Z,45.78
2023-06-23T13:53:56.018Z,45.71
2023-06-23T13:54:57.835Z,45.64